sensor_id;sensor_type;location;lat;lon;timestamp;P1;durP1;ratioP1;P2;durP2;ratioP2
64227;SDS011;50546;49.146;10.616;2022-07-09T00:01:50;6.93;;;2.10;;
64227;SDS011;50546;49.146;10.616;2022-07-09T00:04:15;4.85;;;2.00;;
64227;SDS011;50546;49.146;10.616;2022-07-09T00:06:40;5.60;;;2.28;;
64227;SDS011;50546;49.146;10.616;2022-07-09T00:09:06;6.45;;;2.20;;
64227;SDS011;50546;49.146;10.616;2022-07-09T00:11:31;6.07;;;2.17;;
64227;SDS011;50546;49.146;10.616;2022-07-09T00:13:56;6.93;;;2.25;;
64227;SDS011;50546;49.146;10.616;2022-07-09T00:16:22;6.75;;;2.20;;
64227;SDS011;50546;49.146;10.616;2022-07-09T00:18:47;8.52;;;2.22;;
64227;SDS011;50546;49.146;10.616;2022-07-09T00:21:12;6.22;;;2.30;;
64227;SDS011;50546;49.146;10.616;2022-07-09T00:23:38;6.68;;;2.25;;
64227;SDS011;50546;49.146;10.616;2022-07-09T00:26:03;6.07;;;2.13;;
64227;SDS011;50546;49.146;10.616;2022-07-09T00:28:28;6.10;;;2.20;;
64227;SDS011;50546;49.146;10.616;2022-07-09T00:30:54;5.95;;;2.00;;
64227;SDS011;50546;49.146;10.616;2022-07-09T00:33:19;7.07;;;2.30;;
64227;SDS011;50546;49.146;10.616;2022-07-09T00:35:44;9.18;;;2.22;;
64227;SDS011;50546;49.146;10.616;2022-07-09T00:38:09;6.53;;;2.35;;
64227;SDS011;50546;49.146;10.616;2022-07-09T00:40:35;6.65;;;2.20;;
64227;SDS011;50546;49.146;10.616;2022-07-09T00:43:00;5.60;;;2.40;;
64227;SDS011;50546;49.146;10.616;2022-07-09T00:45:25;5.30;;;2.38;;
64227;SDS011;50546;49.146;10.616;2022-07-09T00:47:51;5.70;;;2.15;;
64227;SDS011;50546;49.146;10.616;2022-07-09T00:50:16;6.05;;;2.00;;
64227;SDS011;50546;49.146;10.616;2022-07-09T00:52:42;6.97;;;2.40;;
64227;SDS011;50546;49.146;10.616;2022-07-09T00:55:09;6.07;;;2.20;;
64227;SDS011;50546;49.146;10.616;2022-07-09T00:57:35;7.38;;;2.40;;
64227;SDS011;50546;49.146;10.616;2022-07-09T01:00:00;8.02;;;2.42;;
64227;SDS011;50546;49.146;10.616;2022-07-09T01:02:26;5.32;;;2.35;;
64227;SDS011;50546;49.146;10.616;2022-07-09T01:04:52;7.32;;;2.75;;
64227;SDS011;50546;49.146;10.616;2022-07-09T01:07:17;7.10;;;2.80;;
64227;SDS011;50546;49.146;10.616;2022-07-09T01:09:42;8.93;;;2.63;;
64227;SDS011;50546;49.146;10.616;2022-07-09T01:12:08;7.93;;;2.70;;
64227;SDS011;50546;49.146;10.616;2022-07-09T01:14:33;8.77;;;2.50;;
64227;SDS011;50546;49.146;10.616;2022-07-09T01:16:59;6.95;;;2.40;;
64227;SDS011;50546;49.146;10.616;2022-07-09T01:19:29;6.97;;;2.60;;
64227;SDS011;50546;49.146;10.616;2022-07-09T01:21:55;6.32;;;2.40;;
64227;SDS011;50546;49.146;10.616;2022-07-09T01:24:21;6.43;;;2.60;;
64227;SDS011;50546;49.146;10.616;2022-07-09T01:26:48;7.78;;;2.63;;
64227;SDS011;50546;49.146;10.616;2022-07-09T01:29:14;6.78;;;2.55;;
64227;SDS011;50546;49.146;10.616;2022-07-09T01:31:39;7.05;;;2.40;;
64227;SDS011;50546;49.146;10.616;2022-07-09T01:34:04;5.40;;;2.40;;
64227;SDS011;50546;49.146;10.616;2022-07-09T01:36:30;5.45;;;2.17;;
64227;SDS011;50546;49.146;10.616;2022-07-09T01:38:55;5.50;;;2.30;;
64227;SDS011;50546;49.146;10.616;2022-07-09T01:41:20;7.72;;;2.30;;
64227;SDS011;50546;49.146;10.616;2022-07-09T01:43:45;6.97;;;2.42;;
64227;SDS011;50546;49.146;10.616;2022-07-09T01:46:11;8.07;;;2.38;;
64227;SDS011;50546;49.146;10.616;2022-07-09T01:48:36;7.43;;;2.22;;
64227;SDS011;50546;49.146;10.616;2022-07-09T01:51:03;8.05;;;2.20;;
64227;SDS011;50546;49.146;10.616;2022-07-09T01:53:29;6.68;;;2.20;;
64227;SDS011;50546;49.146;10.616;2022-07-09T01:55:54;6.13;;;2.33;;
64227;SDS011;50546;49.146;10.616;2022-07-09T01:58:20;5.57;;;2.20;;
64227;SDS011;50546;49.146;10.616;2022-07-09T02:00:45;5.65;;;2.25;;
64227;SDS011;50546;49.146;10.616;2022-07-09T02:03:10;6.47;;;2.22;;
64227;SDS011;50546;49.146;10.616;2022-07-09T02:05:36;6.82;;;2.53;;
64227;SDS011;50546;49.146;10.616;2022-07-09T02:08:01;6.50;;;2.40;;
64227;SDS011;50546;49.146;10.616;2022-07-09T02:10:26;5.75;;;2.40;;
64227;SDS011;50546;49.146;10.616;2022-07-09T02:12:52;5.65;;;2.17;;
64227;SDS011;50546;49.146;10.616;2022-07-09T02:15:17;6.10;;;2.42;;
64227;SDS011;50546;49.146;10.616;2022-07-09T02:17:42;5.57;;;2.22;;
64227;SDS011;50546;49.146;10.616;2022-07-09T02:20:08;6.60;;;2.30;;
64227;SDS011;50546;49.146;10.616;2022-07-09T02:22:36;5.13;;;2.20;;
64227;SDS011;50546;49.146;10.616;2022-07-09T02:25:02;5.53;;;2.20;;
64227;SDS011;50546;49.146;10.616;2022-07-09T02:27:27;7.03;;;2.40;;
64227;SDS011;50546;49.146;10.616;2022-07-09T02:29:53;6.88;;;2.30;;
64227;SDS011;50546;49.146;10.616;2022-07-09T02:32:18;5.88;;;2.50;;
64227;SDS011;50546;49.146;10.616;2022-07-09T02:34:43;6.18;;;2.38;;
64227;SDS011;50546;49.146;10.616;2022-07-09T02:37:09;7.25;;;2.50;;
64227;SDS011;50546;49.146;10.616;2022-07-09T02:39:35;5.22;;;2.20;;
64227;SDS011;50546;49.146;10.616;2022-07-09T02:42:00;5.40;;;2.30;;
64227;SDS011;50546;49.146;10.616;2022-07-09T02:44:26;5.90;;;2.15;;
64227;SDS011;50546;49.146;10.616;2022-07-09T02:46:51;6.32;;;2.55;;
64227;SDS011;50546;49.146;10.616;2022-07-09T02:49:17;6.65;;;2.20;;
64227;SDS011;50546;49.146;10.616;2022-07-09T02:51:42;7.05;;;2.42;;
64227;SDS011;50546;49.146;10.616;2022-07-09T02:54:08;5.88;;;2.30;;
64227;SDS011;50546;49.146;10.616;2022-07-09T02:56:33;7.82;;;2.38;;
64227;SDS011;50546;49.146;10.616;2022-07-09T02:58:59;6.88;;;2.45;;
64227;SDS011;50546;49.146;10.616;2022-07-09T03:01:24;8.38;;;2.50;;
64227;SDS011;50546;49.146;10.616;2022-07-09T03:03:49;5.72;;;2.58;;
64227;SDS011;50546;49.146;10.616;2022-07-09T03:06:15;5.63;;;2.10;;
64227;SDS011;50546;49.146;10.616;2022-07-09T03:08:41;5.88;;;2.20;;
64227;SDS011;50546;49.146;10.616;2022-07-09T03:11:06;9.52;;;2.70;;
64227;SDS011;50546;49.146;10.616;2022-07-09T03:13:32;5.72;;;2.38;;
64227;SDS011;50546;49.146;10.616;2022-07-09T03:15:58;6.68;;;2.40;;
64227;SDS011;50546;49.146;10.616;2022-07-09T03:18:24;7.40;;;2.17;;
64227;SDS011;50546;49.146;10.616;2022-07-09T03:20:49;6.75;;;2.75;;
64227;SDS011;50546;49.146;10.616;2022-07-09T03:23:15;7.63;;;2.58;;
64227;SDS011;50546;49.146;10.616;2022-07-09T03:25:41;6.82;;;2.70;;
64227;SDS011;50546;49.146;10.616;2022-07-09T03:28:06;6.28;;;2.55;;
64227;SDS011;50546;49.146;10.616;2022-07-09T03:30:32;6.57;;;2.80;;
64227;SDS011;50546;49.146;10.616;2022-07-09T03:32:57;7.10;;;2.67;;
64227;SDS011;50546;49.146;10.616;2022-07-09T03:35:22;6.53;;;2.40;;
64227;SDS011;50546;49.146;10.616;2022-07-09T03:37:48;6.63;;;2.63;;
64227;SDS011;50546;49.146;10.616;2022-07-09T03:40:13;7.30;;;2.90;;
64227;SDS011;50546;49.146;10.616;2022-07-09T03:42:38;6.90;;;2.53;;
64227;SDS011;50546;49.146;10.616;2022-07-09T03:45:04;6.78;;;2.42;;
64227;SDS011;50546;49.146;10.616;2022-07-09T03:47:29;8.75;;;2.35;;
64227;SDS011;50546;49.146;10.616;2022-07-09T03:49:55;5.70;;;2.30;;
64227;SDS011;50546;49.146;10.616;2022-07-09T03:52:20;7.78;;;2.40;;
64227;SDS011;50546;49.146;10.616;2022-07-09T03:54:45;6.00;;;2.50;;
64227;SDS011;50546;49.146;10.616;2022-07-09T03:57:10;5.60;;;2.30;;
64227;SDS011;50546;49.146;10.616;2022-07-09T03:59:36;8.27;;;2.38;;
64227;SDS011;50546;49.146;10.616;2022-07-09T04:02:02;5.97;;;2.33;;
64227;SDS011;50546;49.146;10.616;2022-07-09T04:04:29;6.72;;;2.25;;
64227;SDS011;50546;49.146;10.616;2022-07-09T04:06:54;6.60;;;2.20;;
64227;SDS011;50546;49.146;10.616;2022-07-09T04:09:20;5.93;;;2.60;;
64227;SDS011;50546;49.146;10.616;2022-07-09T04:11:46;6.88;;;2.45;;
64227;SDS011;50546;49.146;10.616;2022-07-09T04:14:11;7.25;;;2.45;;
64227;SDS011;50546;49.146;10.616;2022-07-09T04:16:37;5.13;;;2.30;;
64227;SDS011;50546;49.146;10.616;2022-07-09T04:19:02;6.65;;;2.45;;
64227;SDS011;50546;49.146;10.616;2022-07-09T04:21:27;6.18;;;2.50;;
64227;SDS011;50546;49.146;10.616;2022-07-09T04:23:53;7.07;;;2.50;;
64227;SDS011;50546;49.146;10.616;2022-07-09T04:26:18;6.47;;;2.42;;
64227;SDS011;50546;49.146;10.616;2022-07-09T04:28:44;5.90;;;2.60;;
64227;SDS011;50546;49.146;10.616;2022-07-09T04:31:10;6.82;;;2.55;;
64227;SDS011;50546;49.146;10.616;2022-07-09T04:33:35;5.95;;;2.40;;
64227;SDS011;50546;49.146;10.616;2022-07-09T04:36:00;6.38;;;2.50;;
64227;SDS011;50546;49.146;10.616;2022-07-09T04:38:26;7.65;;;2.35;;
64227;SDS011;50546;49.146;10.616;2022-07-09T04:40:51;7.20;;;2.63;;
64227;SDS011;50546;49.146;10.616;2022-07-09T04:43:16;6.32;;;2.25;;
64227;SDS011;50546;49.146;10.616;2022-07-09T04:45:42;7.78;;;2.50;;
64227;SDS011;50546;49.146;10.616;2022-07-09T04:48:07;6.88;;;2.58;;
64227;SDS011;50546;49.146;10.616;2022-07-09T04:50:33;6.72;;;2.28;;
64227;SDS011;50546;49.146;10.616;2022-07-09T04:52:58;7.25;;;2.30;;
64227;SDS011;50546;49.146;10.616;2022-07-09T04:55:23;5.65;;;2.10;;
64227;SDS011;50546;49.146;10.616;2022-07-09T04:57:49;5.40;;;2.20;;
64227;SDS011;50546;49.146;10.616;2022-07-09T05:00:14;5.03;;;2.17;;
64227;SDS011;50546;49.146;10.616;2022-07-09T05:02:41;4.97;;;2.00;;
64227;SDS011;50546;49.146;10.616;2022-07-09T05:05:07;6.53;;;2.40;;
64227;SDS011;50546;49.146;10.616;2022-07-09T05:07:32;6.82;;;2.33;;
64227;SDS011;50546;49.146;10.616;2022-07-09T05:09:59;5.57;;;2.38;;
64227;SDS011;50546;49.146;10.616;2022-07-09T05:12:26;6.35;;;2.20;;
64227;SDS011;50546;49.146;10.616;2022-07-09T05:14:51;6.25;;;2.20;;
64227;SDS011;50546;49.146;10.616;2022-07-09T05:17:17;5.03;;;1.88;;
64227;SDS011;50546;49.146;10.616;2022-07-09T05:19:42;7.03;;;2.42;;
64227;SDS011;50546;49.146;10.616;2022-07-09T05:22:07;5.95;;;2.20;;
64227;SDS011;50546;49.146;10.616;2022-07-09T05:24:33;7.47;;;2.17;;
64227;SDS011;50546;49.146;10.616;2022-07-09T05:26:58;4.93;;;1.98;;
64227;SDS011;50546;49.146;10.616;2022-07-09T05:29:23;6.03;;;2.10;;
64227;SDS011;50546;49.146;10.616;2022-07-09T05:31:49;5.18;;;2.00;;
64227;SDS011;50546;49.146;10.616;2022-07-09T05:34:15;6.93;;;2.17;;
64227;SDS011;50546;49.146;10.616;2022-07-09T05:36:41;6.65;;;2.10;;
64227;SDS011;50546;49.146;10.616;2022-07-09T05:39:06;6.63;;;1.88;;
64227;SDS011;50546;49.146;10.616;2022-07-09T05:41:32;5.93;;;2.10;;
64227;SDS011;50546;49.146;10.616;2022-07-09T05:43:58;5.75;;;1.98;;
64227;SDS011;50546;49.146;10.616;2022-07-09T05:46:24;5.38;;;1.90;;
64227;SDS011;50546;49.146;10.616;2022-07-09T05:48:49;5.25;;;1.70;;
64227;SDS011;50546;49.146;10.616;2022-07-09T05:51:14;5.03;;;1.80;;
64227;SDS011;50546;49.146;10.616;2022-07-09T05:53:40;5.63;;;2.10;;
64227;SDS011;50546;49.146;10.616;2022-07-09T05:56:05;6.18;;;1.90;;
64227;SDS011;50546;49.146;10.616;2022-07-09T05:58:31;5.40;;;1.98;;
64227;SDS011;50546;49.146;10.616;2022-07-09T06:00:56;8.98;;;2.20;;
64227;SDS011;50546;49.146;10.616;2022-07-09T06:03:21;5.07;;;1.80;;
64227;SDS011;50546;49.146;10.616;2022-07-09T06:05:47;6.40;;;2.75;;
64227;SDS011;50546;49.146;10.616;2022-07-09T06:08:12;6.70;;;2.15;;
64227;SDS011;50546;49.146;10.616;2022-07-09T06:10:37;5.78;;;2.20;;
64227;SDS011;50546;49.146;10.616;2022-07-09T06:13:03;6.05;;;2.10;;
64227;SDS011;50546;49.146;10.616;2022-07-09T06:15:28;5.45;;;1.85;;
64227;SDS011;50546;49.146;10.616;2022-07-09T06:17:53;7.45;;;2.50;;
64227;SDS011;50546;49.146;10.616;2022-07-09T06:20:19;6.78;;;2.00;;
64227;SDS011;50546;49.146;10.616;2022-07-09T06:22:44;6.47;;;2.35;;
64227;SDS011;50546;49.146;10.616;2022-07-09T06:25:11;7.55;;;2.00;;
64227;SDS011;50546;49.146;10.616;2022-07-09T06:27:36;5.35;;;2.20;;
64227;SDS011;50546;49.146;10.616;2022-07-09T06:30:02;6.32;;;1.90;;
64227;SDS011;50546;49.146;10.616;2022-07-09T06:32:28;6.53;;;2.20;;
64227;SDS011;50546;49.146;10.616;2022-07-09T06:34:53;6.68;;;2.28;;
64227;SDS011;50546;49.146;10.616;2022-07-09T06:37:19;8.18;;;2.42;;
64227;SDS011;50546;49.146;10.616;2022-07-09T06:39:44;6.53;;;2.20;;
64227;SDS011;50546;49.146;10.616;2022-07-09T06:42:10;5.85;;;1.88;;
64227;SDS011;50546;49.146;10.616;2022-07-09T06:44:36;5.70;;;2.08;;
64227;SDS011;50546;49.146;10.616;2022-07-09T06:47:02;5.40;;;1.80;;
64227;SDS011;50546;49.146;10.616;2022-07-09T06:49:28;6.45;;;2.10;;
64227;SDS011;50546;49.146;10.616;2022-07-09T06:51:54;4.82;;;1.73;;
64227;SDS011;50546;49.146;10.616;2022-07-09T06:54:20;5.78;;;2.08;;
64227;SDS011;50546;49.146;10.616;2022-07-09T06:56:45;4.90;;;1.80;;
64227;SDS011;50546;49.146;10.616;2022-07-09T06:59:11;5.55;;;1.88;;
64227;SDS011;50546;49.146;10.616;2022-07-09T07:01:36;5.05;;;1.45;;
64227;SDS011;50546;49.146;10.616;2022-07-09T07:04:01;4.68;;;1.48;;
64227;SDS011;50546;49.146;10.616;2022-07-09T07:06:27;4.57;;;1.50;;
64227;SDS011;50546;49.146;10.616;2022-07-09T07:08:52;5.35;;;1.60;;
64227;SDS011;50546;49.146;10.616;2022-07-09T07:11:17;5.78;;;1.60;;
64227;SDS011;50546;49.146;10.616;2022-07-09T07:13:43;5.95;;;1.52;;
64227;SDS011;50546;49.146;10.616;2022-07-09T07:16:08;4.93;;;1.60;;
64227;SDS011;50546;49.146;10.616;2022-07-09T07:18:34;5.10;;;1.50;;
64227;SDS011;50546;49.146;10.616;2022-07-09T07:20:59;7.90;;;1.70;;
64227;SDS011;50546;49.146;10.616;2022-07-09T07:23:24;4.40;;;1.48;;
64227;SDS011;50546;49.146;10.616;2022-07-09T07:25:50;6.22;;;1.70;;
64227;SDS011;50546;49.146;10.616;2022-07-09T07:28:15;4.80;;;1.70;;
64227;SDS011;50546;49.146;10.616;2022-07-09T07:30:40;5.95;;;2.00;;
64227;SDS011;50546;49.146;10.616;2022-07-09T07:33:05;5.85;;;1.58;;
64227;SDS011;50546;49.146;10.616;2022-07-09T07:35:31;5.38;;;1.40;;
64227;SDS011;50546;49.146;10.616;2022-07-09T07:37:56;5.03;;;1.70;;
64227;SDS011;50546;49.146;10.616;2022-07-09T07:40:24;4.60;;;1.60;;
64227;SDS011;50546;49.146;10.616;2022-07-09T07:42:50;5.28;;;1.70;;
64227;SDS011;50546;49.146;10.616;2022-07-09T07:45:15;6.05;;;1.60;;
64227;SDS011;50546;49.146;10.616;2022-07-09T07:47:40;6.10;;;1.70;;
64227;SDS011;50546;49.146;10.616;2022-07-09T07:50:06;5.38;;;1.90;;
64227;SDS011;50546;49.146;10.616;2022-07-09T07:52:31;5.68;;;1.55;;
64227;SDS011;50546;49.146;10.616;2022-07-09T07:54:57;5.05;;;1.50;;
64227;SDS011;50546;49.146;10.616;2022-07-09T07:57:22;6.45;;;1.65;;
64227;SDS011;50546;49.146;10.616;2022-07-09T07:59:48;5.55;;;1.70;;
64227;SDS011;50546;49.146;10.616;2022-07-09T08:02:13;4.78;;;1.60;;
64227;SDS011;50546;49.146;10.616;2022-07-09T08:04:39;5.35;;;1.42;;
64227;SDS011;50546;49.146;10.616;2022-07-09T08:07:05;5.32;;;1.58;;
64227;SDS011;50546;49.146;10.616;2022-07-09T08:09:30;4.30;;;1.50;;
64227;SDS011;50546;49.146;10.616;2022-07-09T08:11:57;5.45;;;1.50;;
64227;SDS011;50546;49.146;10.616;2022-07-09T08:14:23;4.90;;;1.40;;
64227;SDS011;50546;49.146;10.616;2022-07-09T08:16:49;4.55;;;1.40;;
64227;SDS011;50546;49.146;10.616;2022-07-09T08:19:14;6.38;;;1.40;;
64227;SDS011;50546;49.146;10.616;2022-07-09T08:21:40;5.25;;;1.55;;
64227;SDS011;50546;49.146;10.616;2022-07-09T08:24:06;6.20;;;1.45;;
64227;SDS011;50546;49.146;10.616;2022-07-09T08:26:31;5.65;;;1.38;;
64227;SDS011;50546;49.146;10.616;2022-07-09T08:28:57;4.40;;;1.50;;
64227;SDS011;50546;49.146;10.616;2022-07-09T08:31:22;4.43;;;1.48;;
64227;SDS011;50546;49.146;10.616;2022-07-09T08:33:48;5.78;;;1.33;;
64227;SDS011;50546;49.146;10.616;2022-07-09T08:36:15;4.72;;;1.40;;
64227;SDS011;50546;49.146;10.616;2022-07-09T08:38:40;5.47;;;1.50;;
64227;SDS011;50546;49.146;10.616;2022-07-09T08:41:06;4.75;;;1.30;;
64227;SDS011;50546;49.146;10.616;2022-07-09T08:43:35;5.03;;;1.55;;
64227;SDS011;50546;49.146;10.616;2022-07-09T08:46:05;6.70;;;1.40;;
64227;SDS011;50546;49.146;10.616;2022-07-09T08:48:35;5.75;;;1.38;;
64227;SDS011;50546;49.146;10.616;2022-07-09T08:51:01;5.53;;;1.40;;
64227;SDS011;50546;49.146;10.616;2022-07-09T08:53:27;5.72;;;1.33;;
64227;SDS011;50546;49.146;10.616;2022-07-09T08:55:53;5.75;;;1.35;;
64227;SDS011;50546;49.146;10.616;2022-07-09T08:58:19;5.25;;;1.42;;
64227;SDS011;50546;49.146;10.616;2022-07-09T09:00:44;5.85;;;1.55;;
64227;SDS011;50546;49.146;10.616;2022-07-09T09:03:12;5.38;;;1.33;;
64227;SDS011;50546;49.146;10.616;2022-07-09T09:05:38;5.03;;;1.35;;
64227;SDS011;50546;49.146;10.616;2022-07-09T09:08:16;6.32;;;1.50;;
64227;SDS011;50546;49.146;10.616;2022-07-09T09:10:47;5.68;;;1.27;;
64227;SDS011;50546;49.146;10.616;2022-07-09T09:13:13;5.68;;;1.40;;
64227;SDS011;50546;49.146;10.616;2022-07-09T09:15:41;5.10;;;1.42;;
64227;SDS011;50546;49.146;10.616;2022-07-09T09:18:06;4.80;;;1.30;;
64227;SDS011;50546;49.146;10.616;2022-07-09T09:20:32;4.95;;;1.40;;
64227;SDS011;50546;49.146;10.616;2022-07-09T09:22:57;6.15;;;1.50;;
64227;SDS011;50546;49.146;10.616;2022-07-09T09:25:27;5.05;;;1.42;;
64227;SDS011;50546;49.146;10.616;2022-07-09T09:27:55;6.18;;;1.50;;
64227;SDS011;50546;49.146;10.616;2022-07-09T09:30:20;4.57;;;1.40;;
64227;SDS011;50546;49.146;10.616;2022-07-09T09:33:03;7.15;;;1.50;;
64227;SDS011;50546;49.146;10.616;2022-07-09T09:35:30;5.72;;;1.27;;
64227;SDS011;50546;49.146;10.616;2022-07-09T09:37:58;4.43;;;1.40;;
64227;SDS011;50546;49.146;10.616;2022-07-09T09:40:24;6.75;;;1.55;;
64227;SDS011;50546;49.146;10.616;2022-07-09T09:42:50;8.25;;;1.58;;
64227;SDS011;50546;49.146;10.616;2022-07-09T09:45:17;4.57;;;1.25;;
64227;SDS011;50546;49.146;10.616;2022-07-09T09:47:45;5.80;;;1.48;;
64227;SDS011;50546;49.146;10.616;2022-07-09T09:50:15;5.40;;;1.40;;
64227;SDS011;50546;49.146;10.616;2022-07-09T09:52:42;5.23;;;1.50;;
64227;SDS011;50546;49.146;10.616;2022-07-09T09:55:11;4.75;;;1.33;;
64227;SDS011;50546;49.146;10.616;2022-07-09T09:57:37;4.40;;;1.20;;
64227;SDS011;50546;49.146;10.616;2022-07-09T10:00:04;5.45;;;1.50;;
64227;SDS011;50546;49.146;10.616;2022-07-09T10:02:30;5.43;;;1.48;;
64227;SDS011;50546;49.146;10.616;2022-07-09T10:04:56;5.93;;;1.38;;
64227;SDS011;50546;49.146;10.616;2022-07-09T10:07:22;5.15;;;1.40;;
64227;SDS011;50546;49.146;10.616;2022-07-09T10:09:54;4.38;;;1.30;;
64227;SDS011;50546;49.146;10.616;2022-07-09T10:12:27;6.18;;;1.50;;
64227;SDS011;50546;49.146;10.616;2022-07-09T10:14:57;4.72;;;1.40;;
64227;SDS011;50546;49.146;10.616;2022-07-09T10:17:23;5.25;;;1.70;;
64227;SDS011;50546;49.146;10.616;2022-07-09T10:19:50;5.05;;;1.60;;
64227;SDS011;50546;49.146;10.616;2022-07-09T10:22:37;5.13;;;1.65;;
64227;SDS011;50546;49.146;10.616;2022-07-09T10:25:05;6.10;;;1.92;;
64227;SDS011;50546;49.146;10.616;2022-07-09T10:27:40;6.95;;;2.05;;
64227;SDS011;50546;49.146;10.616;2022-07-09T10:30:21;5.68;;;1.67;;
64227;SDS011;50546;49.146;10.616;2022-07-09T10:33:00;5.68;;;1.70;;
64227;SDS011;50546;49.146;10.616;2022-07-09T10:35:30;5.47;;;1.60;;
64227;SDS011;50546;49.146;10.616;2022-07-09T10:37:56;5.80;;;1.85;;
64227;SDS011;50546;49.146;10.616;2022-07-09T10:40:22;7.15;;;2.45;;
64227;SDS011;50546;49.146;10.616;2022-07-09T10:42:58;5.78;;;1.63;;
64227;SDS011;50546;49.146;10.616;2022-07-09T10:45:29;5.38;;;1.58;;
64227;SDS011;50546;49.146;10.616;2022-07-09T10:48:01;6.40;;;1.67;;
64227;SDS011;50546;49.146;10.616;2022-07-09T10:50:30;6.47;;;1.88;;
64227;SDS011;50546;49.146;10.616;2022-07-09T10:52:56;6.95;;;1.70;;
64227;SDS011;50546;49.146;10.616;2022-07-09T10:55:23;6.35;;;1.80;;
64227;SDS011;50546;49.146;10.616;2022-07-09T10:57:50;7.15;;;1.50;;
64227;SDS011;50546;49.146;10.616;2022-07-09T11:00:16;5.65;;;1.80;;
64227;SDS011;50546;49.146;10.616;2022-07-09T11:02:51;4.97;;;1.50;;
64227;SDS011;50546;49.146;10.616;2022-07-09T11:05:16;5.95;;;1.63;;
64227;SDS011;50546;49.146;10.616;2022-07-09T11:07:41;8.27;;;1.63;;
64227;SDS011;50546;49.146;10.616;2022-07-09T11:10:07;5.32;;;1.50;;
64227;SDS011;50546;49.146;10.616;2022-07-09T11:12:32;6.70;;;1.58;;
64227;SDS011;50546;49.146;10.616;2022-07-09T11:14:57;5.47;;;1.50;;
64227;SDS011;50546;49.146;10.616;2022-07-09T11:17:23;5.37;;;1.57;;
64227;SDS011;50546;49.146;10.616;2022-07-09T11:19:48;6.38;;;1.52;;
64227;SDS011;50546;49.146;10.616;2022-07-09T11:22:14;5.22;;;1.42;;
64227;SDS011;50546;49.146;10.616;2022-07-09T11:24:40;5.32;;;1.55;;
64227;SDS011;50546;49.146;10.616;2022-07-09T11:27:06;4.45;;;1.30;;
64227;SDS011;50546;49.146;10.616;2022-07-09T11:29:34;5.05;;;1.30;;
64227;SDS011;50546;49.146;10.616;2022-07-09T11:32:00;4.72;;;1.40;;
64227;SDS011;50546;49.146;10.616;2022-07-09T11:34:27;6.00;;;1.42;;
64227;SDS011;50546;49.146;10.616;2022-07-09T11:36:56;5.65;;;1.70;;
64227;SDS011;50546;49.146;10.616;2022-07-09T11:41:52;6.20;;;2.10;;
64227;SDS011;50546;49.146;10.616;2022-07-09T11:44:27;5.45;;;1.73;;
64227;SDS011;50546;49.146;10.616;2022-07-09T11:47:12;5.65;;;1.98;;
64227;SDS011;50546;49.146;10.616;2022-07-09T11:49:43;7.10;;;1.80;;
64227;SDS011;50546;49.146;10.616;2022-07-09T11:52:20;5.70;;;1.80;;
64227;SDS011;50546;49.146;10.616;2022-07-09T11:54:59;5.95;;;1.95;;
64227;SDS011;50546;49.146;10.616;2022-07-09T11:57:29;7.22;;;2.30;;
64227;SDS011;50546;49.146;10.616;2022-07-09T11:59:55;5.57;;;1.90;;
64227;SDS011;50546;49.146;10.616;2022-07-09T12:02:34;7.45;;;2.03;;
64227;SDS011;50546;49.146;10.616;2022-07-09T12:05:07;7.15;;;2.15;;
64227;SDS011;50546;49.146;10.616;2022-07-09T12:07:36;6.18;;;1.80;;
64227;SDS011;50546;49.146;10.616;2022-07-09T12:10:08;5.38;;;2.05;;
64227;SDS011;50546;49.146;10.616;2022-07-09T12:12:35;5.25;;;1.90;;
64227;SDS011;50546;49.146;10.616;2022-07-09T12:15:02;6.43;;;2.17;;
64227;SDS011;50546;49.146;10.616;2022-07-09T12:17:29;6.10;;;2.30;;
64227;SDS011;50546;49.146;10.616;2022-07-09T12:19:56;5.78;;;2.30;;
64227;SDS011;50546;49.146;10.616;2022-07-09T12:22:22;5.57;;;2.05;;
64227;SDS011;50546;49.146;10.616;2022-07-09T12:24:48;6.00;;;2.20;;
64227;SDS011;50546;49.146;10.616;2022-07-09T12:27:14;5.40;;;2.10;;
64227;SDS011;50546;49.146;10.616;2022-07-09T12:29:39;5.32;;;2.13;;
64227;SDS011;50546;49.146;10.616;2022-07-09T12:32:05;6.90;;;2.40;;
64227;SDS011;50546;49.146;10.616;2022-07-09T12:34:30;7.18;;;2.38;;
64227;SDS011;50546;49.146;10.616;2022-07-09T12:36:56;7.60;;;2.55;;
64227;SDS011;50546;49.146;10.616;2022-07-09T12:39:21;5.85;;;2.45;;
64227;SDS011;50546;49.146;10.616;2022-07-09T12:41:47;5.03;;;1.73;;
64227;SDS011;50546;49.146;10.616;2022-07-09T12:44:12;5.43;;;2.30;;
64227;SDS011;50546;49.146;10.616;2022-07-09T12:46:38;6.03;;;2.08;;
64227;SDS011;50546;49.146;10.616;2022-07-09T12:49:03;6.25;;;2.10;;
64227;SDS011;50546;49.146;10.616;2022-07-09T12:51:29;5.45;;;2.10;;
64227;SDS011;50546;49.146;10.616;2022-07-09T12:53:54;5.30;;;2.20;;
64227;SDS011;50546;49.146;10.616;2022-07-09T12:56:19;6.72;;;2.10;;
64227;SDS011;50546;49.146;10.616;2022-07-09T12:58:45;6.95;;;2.45;;
64227;SDS011;50546;49.146;10.616;2022-07-09T13:01:10;5.50;;;2.10;;
64227;SDS011;50546;49.146;10.616;2022-07-09T13:03:35;4.68;;;1.80;;
64227;SDS011;50546;49.146;10.616;2022-07-09T13:06:01;6.40;;;1.80;;
64227;SDS011;50546;49.146;10.616;2022-07-09T13:08:27;5.65;;;1.95;;
64227;SDS011;50546;49.146;10.616;2022-07-09T13:10:52;6.85;;;1.83;;
64227;SDS011;50546;49.146;10.616;2022-07-09T13:13:18;4.70;;;1.58;;
64227;SDS011;50546;49.146;10.616;2022-07-09T13:15:43;4.82;;;1.70;;
64227;SDS011;50546;49.146;10.616;2022-07-09T13:18:09;8.15;;;1.73;;
64227;SDS011;50546;49.146;10.616;2022-07-09T13:20:35;4.88;;;1.55;;
64227;SDS011;50546;49.146;10.616;2022-07-09T13:23:00;5.28;;;1.80;;
64227;SDS011;50546;49.146;10.616;2022-07-09T13:25:25;7.25;;;1.80;;
64227;SDS011;50546;49.146;10.616;2022-07-09T13:27:51;7.28;;;1.80;;
64227;SDS011;50546;49.146;10.616;2022-07-09T13:30:16;5.95;;;2.17;;
64227;SDS011;50546;49.146;10.616;2022-07-09T13:32:45;8.35;;;1.90;;
64227;SDS011;50546;49.146;10.616;2022-07-09T13:35:11;8.35;;;2.00;;
64227;SDS011;50546;49.146;10.616;2022-07-09T13:37:37;6.78;;;2.20;;
64227;SDS011;50546;49.146;10.616;2022-07-09T13:40:02;5.18;;;1.85;;
64227;SDS011;50546;49.146;10.616;2022-07-09T13:42:28;5.57;;;2.10;;
64227;SDS011;50546;49.146;10.616;2022-07-09T13:44:53;5.53;;;2.15;;
64227;SDS011;50546;49.146;10.616;2022-07-09T13:47:19;5.95;;;2.28;;
64227;SDS011;50546;49.146;10.616;2022-07-09T13:49:44;6.70;;;2.10;;
64227;SDS011;50546;49.146;10.616;2022-07-09T13:52:09;6.38;;;2.20;;
64227;SDS011;50546;49.146;10.616;2022-07-09T13:54:35;6.65;;;2.30;;
64227;SDS011;50546;49.146;10.616;2022-07-09T13:57:00;6.53;;;2.30;;
64227;SDS011;50546;49.146;10.616;2022-07-09T13:59:25;5.50;;;2.38;;
64227;SDS011;50546;49.146;10.616;2022-07-09T14:01:51;5.35;;;2.10;;
64227;SDS011;50546;49.146;10.616;2022-07-09T14:04:16;5.90;;;2.22;;
64227;SDS011;50546;49.146;10.616;2022-07-09T14:06:41;6.38;;;2.40;;
64227;SDS011;50546;49.146;10.616;2022-07-09T14:09:07;5.55;;;2.05;;
64227;SDS011;50546;49.146;10.616;2022-07-09T14:11:32;6.07;;;2.40;;
64227;SDS011;50546;49.146;10.616;2022-07-09T14:13:57;5.85;;;2.20;;
64227;SDS011;50546;49.146;10.616;2022-07-09T14:16:23;7.05;;;2.30;;
64227;SDS011;50546;49.146;10.616;2022-07-09T14:18:48;6.40;;;2.40;;
64227;SDS011;50546;49.146;10.616;2022-07-09T14:21:13;5.80;;;2.30;;
64227;SDS011;50546;49.146;10.616;2022-07-09T14:23:39;7.00;;;2.20;;
64227;SDS011;50546;49.146;10.616;2022-07-09T14:26:04;5.95;;;2.17;;
64227;SDS011;50546;49.146;10.616;2022-07-09T14:28:29;4.93;;;1.98;;
64227;SDS011;50546;49.146;10.616;2022-07-09T14:30:55;7.22;;;2.20;;